Gsp Queen — ZDHF2 — position and weather

sailwx.info

Track history (hours):
 
Tides and Currents Weather Stations Pressure Air Temp Water Temp Dewpoint Dewpoint Depression Visibility Wind Speed Wind Dir Waves Ship Positions

Gsp Queen

Last reported at 2018-Aug-16 19:59 UTC. Time now 2018-Aug-16 20:18 UTC.
Position N 40°57' E 024°28'.

Length 70 m; draft 4.8 m.

Type: Tug. MMSI: 236309000.

Date/timePositionNaut miles runAvg speedWind from/ knotsBaromVisibWave heightAir tempDewpointWater temp
2018-Aug-16 19:59N 40°57' E 024°28'0 0.0
2018-Aug-16 19:29N 40°57' E 024°28'0 0.0
2018-Aug-16 18:59N 40°57' E 024°28'0 0.0
2018-Aug-16 18:29N 40°57' E 024°28'0 0.0
2018-Aug-16 17:59N 40°57' E 024°28'0 0.0
2018-Aug-16 17:26N 40°57' E 024°28'0 0.0
2018-Aug-16 16:59N 40°57' E 024°28'0 0.0
2018-Aug-16 16:29N 40°57' E 024°28'0 0.0
2018-Aug-16 15:56N 40°57' E 024°28'0 0.0
2018-Aug-16 15:26N 40°57' E 024°28'0 0.0
2018-Aug-16 14:56N 40°57' E 024°28'0 0.0
2018-Aug-16 14:29N 40°57' E 024°28'0 0.0
2018-Aug-16 13:59N 40°57' E 024°28'0 0.0
2018-Aug-16 13:29N 40°57' E 024°28'0 0.0
2018-Aug-16 12:59N 40°57' E 024°28'0 0.0
2018-Aug-16 12:29N 40°57' E 024°28'0 0.0
2018-Aug-16 12:00N 40°57' E 024°28'2 4.5
2018-Aug-16 11:30N 40°55' E 024°29'5 9.8
2018-Aug-16 11:00N 40°50' E 024°27'1 2.2
2018-Aug-16 10:30N 40°49' E 024°27'0 0.0
2018-Aug-16 10:00N 40°49' E 024°27'0 0.3
2018-Aug-16 09:31N 40°49' E 024°27'0 0.2
2018-Aug-16 09:00N 40°49' E 024°27'0 0.0
2018-Aug-16 08:30N 40°49' E 024°27'0 0.0
2018-Aug-16 08:00N 40°49' E 024°27'0 0.0
2018-Aug-16 07:30N 40°49' E 024°27'0 0.0
2018-Aug-16 07:00N 40°49' E 024°27'0 0.0
2018-Aug-16 06:30N 40°49' E 024°27'0 0.0
2018-Aug-16 06:00N 40°49' E 024°27'0 0.1
2018-Aug-16 05:30N 40°48' E 024°27'4 7.2
2018-Aug-16 05:00N 40°52' E 024°28'5 9.5
2018-Aug-16 04:30N 40°57' E 024°29'0 0.9
2018-Aug-16 04:00N 40°57' E 024°28'0 0.0
2018-Aug-16 03:30N 40°57' E 024°28'0 0.0
2018-Aug-16 03:00N 40°57' E 024°28'0 0.0
2018-Aug-16 02:30N 40°57' E 024°28'0 0.0
2018-Aug-16 02:00N 40°57' E 024°28'0 0.0
2018-Aug-16 01:30N 40°57' E 024°28'0 0.0
2018-Aug-16 01:00N 40°57' E 024°28'0 0.0
2018-Aug-16 00:27N 40°57' E 024°28'0 0.0
2018-Aug-16 00:00N 40°57' E 024°28'0 0.0
2018-Aug-15 23:30N 40°57' E 024°28'0 0.0
2018-Aug-15 22:57N 40°57' E 024°28'0 0.0
2018-Aug-15 22:27N 40°57' E 024°28'0 0.0
2018-Aug-15 22:00N 40°57' E 024°28'0 0.0
2018-Aug-15 21:30N 40°57' E 024°28'0 0.0
2018-Aug-15 21:00N 40°57' E 024°28'0 0.0
2018-Aug-15 20:30N 40°57' E 024°28'0 0.0
2018-Aug-15 20:00N 40°57' E 024°28'0 0.0
2018-Aug-15 19:30N 40°57' E 024°28'0 0.0
2018-Aug-15 19:00N 40°57' E 024°28'0 0.0
2018-Aug-15 18:30N 40°57' E 024°28'0 0.0
2018-Aug-15 18:00N 40°57' E 024°28'0 0.0
2018-Aug-15 17:30N 40°57' E 024°28'0 0.0
2018-Aug-15 16:57N 40°57' E 024°28'0 0.0
2018-Aug-15 16:30N 40°57' E 024°28'0 0.0
2018-Aug-15 16:00N 40°57' E 024°28'0 0.0
2018-Aug-15 15:30N 40°57' E 024°28'0 0.0
2018-Aug-15 15:00N 40°57' E 024°28'0 0.0
2018-Aug-15 14:30N 40°57' E 024°28'0 0.0
2018-Aug-15 14:00N 40°57' E 024°28'0 0.0
2018-Aug-15 13:30N 40°57' E 024°28'0 0.0
2018-Aug-15 13:00N 40°57' E 024°28'0 0.0
2018-Aug-15 12:27N 40°57' E 024°28'0 0.0
2018-Aug-15 12:00N 40°57' E 024°28'0 0.0
2018-Aug-15 11:30N 40°57' E 024°28'0 0.0
2018-Aug-15 11:00N 40°57' E 024°28'0 0.0
2018-Aug-15 10:30N 40°57' E 024°28'2 3.3
2018-Aug-15 10:00N 40°55' E 024°29'4 7.5
2018-Aug-15 09:30N 40°51' E 024°28'3 6.0
2018-Aug-15 09:00N 40°49' E 024°27'0 0.0
2018-Aug-15 08:30N 40°49' E 024°27'0 0.0
2018-Aug-15 08:00N 40°49' E 024°27'0 0.0
2018-Aug-15 07:30N 40°49' E 024°27'0 0.0
2018-Aug-15 07:00N 40°49' E 024°27'0 0.0
2018-Aug-15 06:30N 40°49' E 024°27'0 0.0
2018-Aug-15 06:00N 40°49' E 024°27'0 0.0
2018-Aug-15 05:30N 40°49' E 024°27'0 0.0
2018-Aug-15 05:00N 40°49' E 024°27'0 0.9
2018-Aug-15 04:30N 40°49' E 024°27'0 0.2
2018-Aug-15 04:00N 40°49' E 024°27'0 0.0
2018-Aug-15 03:30N 40°49' E 024°27'0 0.0
2018-Aug-15 03:00N 40°49' E 024°27'0 0.0
2018-Aug-15 02:21N 40°49' E 024°27'0 0.0
2018-Aug-15 02:00N 40°49' E 024°27'0 0.0
2018-Aug-15 01:30N 40°49' E 024°27'0 0.0
2018-Aug-15 00:57N 40°49' E 024°27'0 0.0
2018-Aug-15 00:30N 40°49' E 024°27'0 0.0
2018-Aug-15 00:00N 40°49' E 024°27'0 0.0
2018-Aug-14 23:27N 40°49' E 024°27'0 0.0
2018-Aug-14 23:00N 40°49' E 024°27'0 0.1
2018-Aug-14 22:27N 40°49' E 024°27'0 0.1
2018-Aug-14 22:00N 40°49' E 024°27'0 0.0
2018-Aug-14 21:30N 40°49' E 024°27'0 0.0
2018-Aug-14 21:00N 40°49' E 024°27'0 0.0
2018-Aug-14 20:30N 40°49' E 024°27'0 0.0
2018-Aug-14 20:00N 40°49' E 024°27'0 0.0
2018-Aug-14 19:30N 40°49' E 024°27'0 0.0
2018-Aug-14 19:00N 40°49' E 024°27'0 0.0
2018-Aug-14 18:30N 40°49' E 024°27'0 0.0
2018-Aug-14 17:57N 40°49' E 024°27'0 0.0
2018-Aug-14 17:27N 40°49' E 024°27'0 0.0
2018-Aug-14 17:00N 40°49' E 024°27'0 0.0
2018-Aug-14 16:30N 40°49' E 024°27'0 0.0
2018-Aug-14 15:57N 40°49' E 024°27'0 0.0
2018-Aug-14 15:30N 40°49' E 024°27'0 0.0
2018-Aug-14 15:00N 40°49' E 024°27'0 0.0
2018-Aug-14 14:30N 40°49' E 024°27'0 0.0
2018-Aug-14 13:57N 40°49' E 024°27'0 0.0
2018-Aug-14 13:30N 40°49' E 024°27'0 0.0
2018-Aug-14 13:00N 40°49' E 024°27'0 0.2
2018-Aug-14 12:30N 40°49' E 024°27'5 9.4
2018-Aug-14 12:00N 40°54' E 024°28'3 6.3
2018-Aug-14 11:30N 40°57' E 024°28'0 0.0
2018-Aug-14 11:00N 40°57' E 024°28'0 0.0
2018-Aug-14 10:30N 40°57' E 024°28'0 0.0
2018-Aug-14 10:00N 40°57' E 024°28'0 0.0
2018-Aug-14 09:30N 40°57' E 024°28'0 0.0
2018-Aug-14 09:00N 40°57' E 024°28'0 0.0
2018-Aug-14 08:30N 40°57' E 024°28'0 0.0
2018-Aug-14 08:00N 40°57' E 024°28'0 0.0
2018-Aug-14 07:30N 40°57' E 024°28'0 0.0
2018-Aug-14 07:00N 40°57' E 024°28'0 0.0
2018-Aug-14 06:30N 40°57' E 024°28'0 0.0
2018-Aug-14 06:01N 40°57' E 024°28'0 0.0
2018-Aug-14 05:30N 40°57' E 024°28'0 0.0
2018-Aug-14 05:01N 40°57' E 024°28'0 0.0
2018-Aug-14 04:31N 40°57' E 024°28'3 6.5
2018-Aug-14 04:01N 40°54' E 024°28'5 9.8
2018-Aug-14 03:30N 40°49' E 024°27'0 0.3
2018-Aug-14 03:00N 40°49' E 024°27'0 0.0
2018-Aug-14 02:30N 40°49' E 024°27'0 0.0
2018-Aug-14 02:00N 40°49' E 024°27'0 0.0
2018-Aug-14 01:30N 40°49' E 024°27'0 0.0
2018-Aug-14 01:00N 40°49' E 024°27'0 0.0
2018-Aug-14 00:30N 40°49' E 024°27'0 0.6
2018-Aug-14 00:01N 40°49' E 024°27'0 0.0
2018-Aug-13 23:31N 40°49' E 024°27'0 0.0
2018-Aug-13 23:01N 40°49' E 024°27'0 0.0
2018-Aug-13 22:30N 40°49' E 024°27'0 0.0
2018-Aug-13 22:01N 40°49' E 024°27'0 0.0
2018-Aug-13 21:31N 40°49' E 024°27'0 0.0
2018-Aug-13 21:01N 40°49' E 024°27'0 0.0
2018-Aug-13 20:31N 40°49' E 024°27'0 0.0
2018-Aug-13 20:00N 40°49' E 024°27'0 0.0
2018-Aug-13 19:31N 40°49' E 024°27'0 0.1
2018-Aug-13 19:00N 40°49' E 024°27'0 0.0
2018-Aug-13 18:31N 40°49' E 024°27'0 0.0
2018-Aug-13 18:01N 40°49' E 024°27'0 0.0
2018-Aug-13 17:31N 40°49' E 024°27'0 0.0
2018-Aug-13 17:00N 40°49' E 024°27'0 0.0
2018-Aug-13 16:30N 40°49' E 024°27'0 0.0
2018-Aug-13 16:00N 40°49' E 024°27'1 2.2
2018-Aug-13 15:30N 40°50' E 024°27'5 9.5
2018-Aug-13 15:00N 40°54' E 024°29'2 4.5
2018-Aug-13 14:28N 40°57' E 024°28'0 0.0
2018-Aug-13 13:58N 40°57' E 024°28'0 0.0
2018-Aug-13 13:28N 40°57' E 024°28'0 0.0
2018-Aug-13 12:58N 40°57' E 024°28'0 0.0
2018-Aug-13 12:28N 40°57' E 024°28'0 0.0
2018-Aug-13 11:58N 40°57' E 024°28'0 0.0
2018-Aug-13 11:28N 40°57' E 024°28'0 0.0
2018-Aug-13 10:58N 40°57' E 024°28'0 0.0
2018-Aug-13 10:28N 40°57' E 024°28'0 0.0
2018-Aug-13 09:58N 40°57' E 024°28'0 0.0
2018-Aug-13 09:28N 40°57' E 024°28'0 0.0
2018-Aug-13 08:55N 40°57' E 024°28'0 0.0
2018-Aug-13 08:25N 40°57' E 024°28'0 0.0
2018-Aug-13 07:58N 40°57' E 024°28'0 0.0
2018-Aug-13 07:28N 40°57' E 024°28'0 0.1
2018-Aug-13 07:00N 40°57' E 024°28'3 6.4
2018-Aug-13 06:31N 40°54' E 024°28'510.1
2018-Aug-13 06:00N 40°49' E 024°27'0 0.2
2018-Aug-13 05:30N 40°49' E 024°27'0 0.0
2018-Aug-13 05:00N 40°49' E 024°27'0 0.0
2018-Aug-13 04:30N 40°49' E 024°27'0 0.0
2018-Aug-13 04:00N 40°49' E 024°27'0 0.2
2018-Aug-13 03:30N 40°49' E 024°27'0 0.1
2018-Aug-13 03:00N 40°49' E 024°27'0 0.0
2018-Aug-13 02:30N 40°49' E 024°27'0 0.0
2018-Aug-13 02:00N 40°49' E 024°27'0 0.0
2018-Aug-13 01:30N 40°49' E 024°27'0 0.0
2018-Aug-13 01:00N 40°49' E 024°27'0 0.0
2018-Aug-13 00:31N 40°49' E 024°27'0 0.0
2018-Aug-13 00:01N 40°49' E 024°27'0 0.0
2018-Aug-12 23:30N 40°49' E 024°27'1 1.1
2018-Aug-12 23:00N 40°49' E 024°27'5 9.4
2018-Aug-12 22:31N 40°54' E 024°28'3 5.4
2018-Aug-12 21:58N 40°57' E 024°28'0 0.0
2018-Aug-12 21:31N 40°57' E 024°28'0 0.0
2018-Aug-12 20:58N 40°57' E 024°28'0 0.0
2018-Aug-12 20:31N 40°57' E 024°28'0 0.0
2018-Aug-12 20:00N 40°57' E 024°28'0 0.0
2018-Aug-12 19:30N 40°57' E 024°28'0 0.0
2018-Aug-12 19:00N 40°57' E 024°28'0 0.0
2018-Aug-12 18:30N 40°57' E 024°28'0 0.0
2018-Aug-12 18:00N 40°57' E 024°28'0 0.0
2018-Aug-12 17:30N 40°57' E 024°28'0 0.0
2018-Aug-12 17:00N 40°57' E 024°28'0 0.0
2018-Aug-12 16:27N 40°57' E 024°28'0 0.0
2018-Aug-12 16:00N 40°57' E 024°28'0 0.0
2018-Aug-12 15:30N 40°57' E 024°28'0 0.0
2018-Aug-12 15:00N 40°57' E 024°28'0 0.0
2018-Aug-12 14:30N 40°57' E 024°28'0 0.0
2018-Aug-12 14:00N 40°57' E 024°28'0 0.0
2018-Aug-12 13:30N 40°57' E 024°28'0 0.0
2018-Aug-12 13:00N 40°57' E 024°28'0 0.0
2018-Aug-12 12:30N 40°57' E 024°28'0 0.0
2018-Aug-12 12:00N 40°57' E 024°28'0 0.0
2018-Aug-12 11:30N 40°57' E 024°28'0 0.0
2018-Aug-12 11:00N 40°57' E 024°28'0 0.0
2018-Aug-12 10:30N 40°57' E 024°28'0 0.0
2018-Aug-12 10:00N 40°57' E 024°28'0 0.0
2018-Aug-12 09:30N 40°57' E 024°28'0 0.0
2018-Aug-12 09:00N 40°57' E 024°28'0 0.0
2018-Aug-12 08:30N 40°57' E 024°28'0 0.0
2018-Aug-12 08:00N 40°57' E 024°28'0 0.0
2018-Aug-12 07:30N 40°57' E 024°28'0 0.0
2018-Aug-12 07:00N 40°57' E 024°28'0 0.0
2018-Aug-12 06:30N 40°57' E 024°28'0 0.0
2018-Aug-12 05:57N 40°57' E 024°28'0 0.1
2018-Aug-12 05:30N 40°57' E 024°28'4 8.7
2018-Aug-12 05:00N 40°52' E 024°28'4 7.7
2018-Aug-12 04:30N 40°49' E 024°27'0 0.6
2018-Aug-12 04:00N 40°49' E 024°27'0 0.1
2018-Aug-12 03:30N 40°49' E 024°27'0 0.0
2018-Aug-12 03:00N 40°49' E 024°27'0 0.0
2018-Aug-12 02:30N 40°49' E 024°27'0 0.0
2018-Aug-12 01:57N 40°49' E 024°27'0 0.0
2018-Aug-12 01:30N 40°49' E 024°27'0 0.2
2018-Aug-12 01:00N 40°49' E 024°27'0 0.6
2018-Aug-12 00:30N 40°49' E 024°27'0 0.0
2018-Aug-12 00:00N 40°49' E 024°27'0 0.0
2018-Aug-11 23:30N 40°49' E 024°27'0 0.0
2018-Aug-11 23:00N 40°49' E 024°27'0 0.2
2018-Aug-11 22:30N 40°49' E 024°27'0 0.0
2018-Aug-11 22:00N 40°49' E 024°27'0 0.0
2018-Aug-11 21:30N 40°49' E 024°27'0 0.0
2018-Aug-11 21:00N 40°49' E 024°27'0 0.0
2018-Aug-11 20:30N 40°49' E 024°27'0 0.0
2018-Aug-11 20:00N 40°49' E 024°27'0 0.0
2018-Aug-11 19:30N 40°49' E 024°27'0 0.0
2018-Aug-11 19:00N 40°49' E 024°27'0 0.0
2018-Aug-11 18:30N 40°49' E 024°27'0 0.0
2018-Aug-11 18:00N 40°49' E 024°27'0 0.0
2018-Aug-11 17:30N 40°49' E 024°27'0 0.0
2018-Aug-11 17:00N 40°49' E 024°27'0 0.0
2018-Aug-11 16:30N 40°49' E 024°27'0 0.0
2018-Aug-11 16:00N 40°49' E 024°27'0 0.0
2018-Aug-11 15:30N 40°49' E 024°27'2 3.3
2018-Aug-11 15:00N 40°50' E 024°27'510.0
2018-Aug-11 14:30N 40°55' E 024°28'2 3.3
2018-Aug-11 14:00N 40°57' E 024°28'0 0.0
2018-Aug-11 13:30N 40°57' E 024°28'0 0.0
2018-Aug-11 13:00N 40°57' E 024°28'0 0.0
2018-Aug-11 12:30N 40°57' E 024°28'0 0.0
2018-Aug-11 12:00N 40°57' E 024°28'0 0.0
2018-Aug-11 11:30N 40°57' E 024°28'0 0.0
2018-Aug-11 11:00N 40°57' E 024°28'0 0.0
2018-Aug-11 10:30N 40°57' E 024°28'0 0.0
2018-Aug-11 10:00N 40°57' E 024°28'2 3.6
2018-Aug-11 09:31N 40°55' E 024°28'510.4
2018-Aug-11 09:01N 40°50' E 024°27'1 2.7
2018-Aug-11 08:31N 40°49' E 024°27'0 0.0
2018-Aug-11 08:00N 40°49' E 024°27'0 0.0
2018-Aug-11 07:31N 40°49' E 024°27'0 0.0
2018-Aug-11 07:01N 40°49' E 024°27'0 0.0
2018-Aug-11 06:31N 40°49' E 024°27'0 0.7
2018-Aug-11 06:00N 40°49' E 024°27'0 0.0
2018-Aug-11 05:26N 40°49' E 024°27'0 0.0
2018-Aug-11 04:56N 40°49' E 024°27'0 0.0
2018-Aug-11 04:29N 40°49' E 024°27'0 0.0
2018-Aug-11 03:59N 40°49' E 024°27'0 0.0
2018-Aug-11 03:29N 40°49' E 024°27'0 0.0
2018-Aug-11 02:56N 40°49' E 024°27'0 0.0
2018-Aug-11 02:29N 40°49' E 024°27'0 0.1
2018-Aug-11 01:56N 40°49' E 024°27'0 0.1
2018-Aug-11 01:29N 40°49' E 024°27'0 0.0
2018-Aug-11 00:59N 40°49' E 024°27'0 0.1
2018-Aug-11 00:29N 40°49' E 024°27'0 0.2
2018-Aug-11 00:00N 40°49' E 024°27'0 0.8
2018-Aug-10 23:30N 40°49' E 024°27'0 0.0
2018-Aug-10 23:00N 40°49' E 024°27'0 0.0
2018-Aug-10 22:30N 40°49' E 024°27'0 0.0
2018-Aug-10 22:00N 40°49' E 024°27'0 0.1
2018-Aug-10 21:30N 40°49' E 024°27'0 0.3
2018-Aug-10 21:00N 40°49' E 024°27'0 0.1
2018-Aug-10 20:30N 40°49' E 024°27'0 0.1
2018-Aug-10 20:00N 40°49' E 024°27'0 0.0
2018-Aug-10 19:30N 40°49' E 024°27'0 0.0
2018-Aug-10 19:00N 40°49' E 024°27'0 0.0
2018-Aug-10 18:30N 40°49' E 024°27'0 0.0
2018-Aug-10 18:00N 40°49' E 024°27'0 0.0
2018-Aug-10 17:30N 40°49' E 024°27'0 0.0
2018-Aug-10 17:00N 40°49' E 024°27'0 0.0
2018-Aug-10 16:30N 40°49' E 024°27'0 0.0
2018-Aug-10 16:00N 40°49' E 024°27'0 0.0
2018-Aug-10 15:30N 40°49' E 024°27'0 0.2
2018-Aug-10 15:00N 40°49' E 024°27'5 9.0
2018-Aug-10 14:29N 40°53' E 024°28'3 7.3
2018-Aug-10 14:00N 40°57' E 024°28'0 0.0
2018-Aug-10 13:30N 40°57' E 024°28'0 0.0
2018-Aug-10 13:00N 40°57' E 024°28'0 0.0
2018-Aug-10 12:30N 40°57' E 024°28'0 0.0
2018-Aug-10 12:00N 40°57' E 024°28'0 0.0
2018-Aug-10 11:30N 40°57' E 024°28'0 0.0
2018-Aug-10 11:00N 40°57' E 024°28'0 0.0
2018-Aug-10 10:30N 40°57' E 024°28'0 0.0
2018-Aug-10 09:57N 40°57' E 024°28'0 0.0
2018-Aug-10 09:30N 40°57' E 024°28'0 0.0
2018-Aug-10 09:00N 40°57' E 024°28'0 0.0
2018-Aug-10 08:30N 40°57' E 024°28'0 0.0
2018-Aug-10 08:00N 40°57' E 024°28'0 0.0
2018-Aug-10 07:30N 40°57' E 024°28'0 0.0
2018-Aug-10 07:00N 40°57' E 024°28'0 0.0
2018-Aug-10 06:30N 40°57' E 024°28'0 0.0
2018-Aug-10 06:00N 40°57' E 024°28'0 0.0
2018-Aug-10 05:30N 40°57' E 024°28'0 0.0
2018-Aug-10 05:00N 40°57' E 024°28'0 0.0
2018-Aug-10 04:30N 40°57' E 024°28'0 0.0
2018-Aug-10 04:00N 40°57' E 024°28'0 0.0
2018-Aug-10 03:30N 40°57' E 024°28'0 0.0
2018-Aug-10 03:00N 40°57' E 024°28'0 0.0
2018-Aug-10 02:30N 40°57' E 024°28'0 0.0
2018-Aug-10 02:00N 40°57' E 024°28'0 0.0
2018-Aug-10 01:29N 40°57' E 024°28'0 0.0
2018-Aug-10 00:59N 40°57' E 024°28'0 0.0
2018-Aug-10 00:29N 40°57' E 024°28'0 0.0
2018-Aug-09 23:59N 40°57' E 024°28'0 0.0
2018-Aug-09 23:29N 40°57' E 024°28'0 0.0
2018-Aug-09 22:59N 40°57' E 024°28'0 0.0
2018-Aug-09 22:29N 40°57' E 024°28'0 0.0
2018-Aug-09 21:59N 40°57' E 024°28'0 0.0
2018-Aug-09 21:29N 40°57' E 024°28'0 0.0
2018-Aug-09 20:59N 40°57' E 024°28'0 0.0
2018-Aug-09 20:29N 40°57' E 024°28'0 0.0
2018-Aug-09 19:59N 40°57' E 024°28'0 0.0
2018-Aug-09 19:29N 40°57' E 024°28'0 0.0
2018-Aug-09 18:59N 40°57' E 024°28'0 0.0
2018-Aug-09 18:29N 40°57' E 024°28'0 0.0
2018-Aug-09 17:59N 40°57' E 024°28'0 0.0
2018-Aug-09 17:29N 40°57' E 024°28'0 0.0
2018-Aug-09 16:59N 40°57' E 024°28'0 0.0
2018-Aug-09 16:29N 40°57' E 024°28'0 0.0
2018-Aug-09 15:59N 40°57' E 024°28'0 0.0
2018-Aug-09 15:29N 40°57' E 024°28'0 0.0
2018-Aug-09 14:59N 40°57' E 024°28'0 0.0
2018-Aug-09 14:29N 40°57' E 024°28'0 0.0
2018-Aug-09 13:59N 40°57' E 024°28'0 0.1
2018-Aug-09 13:29N 40°57' E 024°28'0 0.0
2018-Aug-09 12:59N 40°57' E 024°28'0 0.0
2018-Aug-09 12:29N 40°57' E 024°28'0 0.0
2018-Aug-09 11:59N 40°57' E 024°28'0 0.0
2018-Aug-09 11:29N 40°57' E 024°28'0 0.0
2018-Aug-09 10:59N 40°57' E 024°28'0 0.0
2018-Aug-09 10:29N 40°57' E 024°28'0 0.0
2018-Aug-09 09:59N 40°57' E 024°28'0 0.0
2018-Aug-09 09:29N 40°57' E 024°28'0 0.0
2018-Aug-09 08:59N 40°57' E 024°28'0 0.0
2018-Aug-09 08:29N 40°57' E 024°28'0 0.0
2018-Aug-09 07:59N 40°57' E 024°28'0 0.0
2018-Aug-09 07:29N 40°57' E 024°28'0 0.0
2018-Aug-09 06:59N 40°57' E 024°28'0 0.0
2018-Aug-09 06:29N 40°57' E 024°28'0 0.0
2018-Aug-09 05:59N 40°57' E 024°28'0 0.0
2018-Aug-09 05:29N 40°57' E 024°28'0 0.0
2018-Aug-09 04:59N 40°57' E 024°28'0 0.0
2018-Aug-09 04:31N 40°57' E 024°28'1 1.2
2018-Aug-09 04:00N 40°56' E 024°29'510.3
2018-Aug-09 03:31N 40°51' E 024°28'2 4.6
2018-Aug-09 02:58N 40°49' E 024°27'0 0.0
2018-Aug-09 02:22N 40°49' E 024°27'0 0.0
2018-Aug-09 01:58N 40°49' E 024°27'0 0.0
2018-Aug-09 01:28N 40°49' E 024°27'0 0.0
2018-Aug-09 00:55N 40°49' E 024°27'0 0.0
2018-Aug-09 00:28N 40°49' E 024°27'0 0.0
2018-Aug-08 23:58N 40°49' E 024°27'0 0.0
2018-Aug-08 23:22N 40°49' E 024°27'0 0.0
2018-Aug-08 22:58N 40°49' E 024°27'0 0.0
2018-Aug-08 22:25N 40°49' E 024°27'0 0.0
2018-Aug-08 21:55N 40°49' E 024°27'0 0.0
2018-Aug-08 21:22N 40°49' E 024°27'0 0.0
2018-Aug-08 20:55N 40°49' E 024°27'0 0.0
2018-Aug-08 20:28N 40°49' E 024°27'0 0.0
2018-Aug-08 19:58N 40°49' E 024°27'0 0.0
2018-Aug-08 19:28N 40°49' E 024°27'0 0.1
2018-Aug-08 18:58N 40°49' E 024°27'0 0.0
2018-Aug-08 18:19N 40°49' E 024°27'0 0.0
2018-Aug-08 17:55N 40°49' E 024°27'0 0.0
2018-Aug-08 17:28N 40°49' E 024°27'0 0.8
2018-Aug-08 17:00N 40°49' E 024°27'0 0.0
2018-Aug-08 16:30N 40°49' E 024°27'0 0.0
2018-Aug-08 16:00N 40°49' E 024°27'0 0.0
2018-Aug-08 15:30N 40°49' E 024°27'0 0.0
2018-Aug-08 15:00N 40°49' E 024°27'0 0.0
2018-Aug-08 14:30N 40°49' E 024°27'0 0.0
2018-Aug-08 14:00N 40°49' E 024°27'0 0.0
2018-Aug-08 13:30N 40°49' E 024°27'0 0.0
2018-Aug-08 13:00N 40°49' E 024°27'0 0.0
2018-Aug-08 12:30N 40°49' E 024°27'0 0.0
2018-Aug-08 12:00N 40°49' E 024°27'0 0.2
2018-Aug-08 11:30N 40°49' E 024°27'0 0.0
2018-Aug-08 11:00N 40°49' E 024°27'0 0.0
2018-Aug-08 10:30N 40°49' E 024°27'0 0.0
2018-Aug-08 10:00N 40°49' E 024°27'0 0.0
2018-Aug-08 09:29N 40°49' E 024°27'0 0.0
2018-Aug-08 09:00N 40°49' E 024°27'0 0.0
2018-Aug-08 08:30N 40°49' E 024°27'0 0.0
2018-Aug-08 08:00N 40°49' E 024°27'0 0.5
2018-Aug-08 07:30N 40°49' E 024°27'0 0.0
2018-Aug-08 07:00N 40°49' E 024°27'0 0.0
2018-Aug-08 06:30N 40°49' E 024°27'0 0.0
2018-Aug-08 06:00N 40°49' E 024°27'0 0.0
2018-Aug-08 05:30N 40°49' E 024°27'0 0.0
2018-Aug-08 05:00N 40°49' E 024°27'0 0.0
2018-Aug-08 04:30N 40°49' E 024°27'0 0.0
2018-Aug-08 04:00N 40°49' E 024°27'0 0.0
2018-Aug-08 03:30N 40°49' E 024°27'0 0.0
2018-Aug-08 03:00N 40°49' E 024°27'0 0.0
2018-Aug-08 02:30N 40°49' E 024°27'0 0.0
2018-Aug-08 02:00N 40°49' E 024°27'0 0.0
2018-Aug-08 01:30N 40°49' E 024°27'0 0.0
2018-Aug-08 01:00N 40°49' E 024°27'0 0.0
2018-Aug-08 00:30N 40°49' E 024°27'0 0.0
2018-Aug-07 23:54N 40°49' E 024°27'0 0.0
2018-Aug-07 23:27N 40°49' E 024°27'0 0.0
2018-Aug-07 22:57N 40°49' E 024°27'0 0.0
2018-Aug-07 22:30N 40°49' E 024°27'0 0.0
2018-Aug-07 22:00N 40°49' E 024°27'0 0.0
2018-Aug-07 21:30N 40°49' E 024°27'0 0.0
2018-Aug-07 21:00N 40°49' E 024°27'0 0.0
2018-Aug-07 20:30N 40°49' E 024°27'0 0.0
2018-Aug-07 20:00N 40°49' E 024°27'0 0.0
2018-Aug-07 19:30N 40°49' E 024°27'0 0.0
2018-Aug-07 19:00N 40°49' E 024°27'0 0.0
2018-Aug-07 18:30N 40°49' E 024°27'0 0.0
2018-Aug-07 18:00N 40°49' E 024°27'0 0.0
2018-Aug-07 17:30N 40°49' E 024°27'3 6.4
2018-Aug-07 17:00N 40°52' E 024°28'5 9.7
2018-Aug-07 16:30N 40°57' E 024°29'0 0.9
2018-Aug-07 16:00N 40°57' E 024°28'0 0.0
2018-Aug-07 15:30N 40°57' E 024°28'0 0.0
2018-Aug-07 14:57N 40°57' E 024°28'0 0.0
2018-Aug-07 14:30N 40°57' E 024°28'0 0.0
2018-Aug-07 14:00N 40°57' E 024°28'0 0.0
2018-Aug-07 13:30N 40°57' E 024°28'0 0.0
2018-Aug-07 13:00N 40°57' E 024°28'0 0.0
2018-Aug-07 12:30N 40°57' E 024°28'0 0.0
2018-Aug-07 12:00N 40°57' E 024°28'0 0.0
2018-Aug-07 11:27N 40°57' E 024°28'0 0.0
2018-Aug-07 11:00N 40°57' E 024°28'0 0.0
2018-Aug-07 10:30N 40°57' E 024°28'0 0.0
2018-Aug-07 10:00N 40°57' E 024°28'0 0.0
2018-Aug-07 09:31N 40°57' E 024°28'3 5.8
2018-Aug-07 09:01N 40°54' E 024°29'510.4
2018-Aug-07 08:30N 40°49' E 024°27'0 0.4
2018-Aug-07 08:01N 40°49' E 024°27'0 0.6
2018-Aug-07 07:31N 40°49' E 024°27'0 0.1
2018-Aug-07 06:59N 40°49' E 024°27'0 0.0
2018-Aug-07 06:29N 40°49' E 024°27'0 0.0
2018-Aug-07 05:59N 40°49' E 024°27'0 0.0
2018-Aug-07 05:29N 40°49' E 024°27'0 0.0
2018-Aug-07 04:59N 40°49' E 024°27'0 0.0
2018-Aug-07 04:29N 40°49' E 024°27'0 0.0
2018-Aug-07 03:59N 40°49' E 024°27'0 0.0
2018-Aug-07 03:29N 40°49' E 024°27'0 0.0
2018-Aug-07 02:53N 40°49' E 024°27'0 0.0
2018-Aug-07 02:29N 40°49' E 024°27'0 0.0
2018-Aug-07 01:59N 40°49' E 024°27'0 0.0
2018-Aug-07 01:29N 40°49' E 024°27'0 0.0
2018-Aug-07 00:59N 40°49' E 024°27'0 0.0
2018-Aug-07 00:23N 40°49' E 024°27'0 0.0
2018-Aug-06 23:59N 40°49' E 024°27'0 0.0
2018-Aug-06 23:29N 40°49' E 024°27'0 0.5
2018-Aug-06 23:00N 40°49' E 024°27'0 0.0
2018-Aug-06 22:30N 40°49' E 024°27'0 0.6
2018-Aug-06 22:00N 40°49' E 024°27'0 0.1
2018-Aug-06 21:28N 40°49' E 024°27'0 0.0
2018-Aug-06 20:58N 40°49' E 024°27'0 0.0
2018-Aug-06 20:28N 40°49' E 024°27'  
Track history (hours):
 
Tides and Currents Weather Stations Pressure Air Temp Water Temp Dewpoint Dewpoint Depression Visibility Wind Speed Wind Dir Waves Ship Positions

Gsp Queen

Last reported at 2018-Aug-16 19:59 UTC. Time now 2018-Aug-16 20:18 UTC.
Position N 40°57' E 024°28'.

Length 70 m; draft 4.8 m.

Type: Tug. MMSI: 236309000.

Date/timePositionNaut miles runAvg speedWind from/ knotsBaromVisibWave heightAir tempDewpointWater temp
2018-Aug-16 19:59N 40°57' E 024°28'0 0.0
2018-Aug-16 19:29N 40°57' E 024°28'0 0.0
2018-Aug-16 18:59N 40°57' E 024°28'0 0.0
2018-Aug-16 18:29N 40°57' E 024°28'0 0.0
2018-Aug-16 17:59N 40°57' E 024°28'0 0.0
2018-Aug-16 17:26N 40°57' E 024°28'0 0.0
2018-Aug-16 16:59N 40°57' E 024°28'0 0.0
2018-Aug-16 16:29N 40°57' E 024°28'0 0.0
2018-Aug-16 15:56N 40°57' E 024°28'0 0.0
2018-Aug-16 15:26N 40°57' E 024°28'0 0.0
2018-Aug-16 14:56N 40°57' E 024°28'0 0.0
2018-Aug-16 14:29N 40°57' E 024°28'0 0.0
2018-Aug-16 13:59N 40°57' E 024°28'0 0.0
2018-Aug-16 13:29N 40°57' E 024°28'0 0.0
2018-Aug-16 12:59N 40°57' E 024°28'0 0.0
2018-Aug-16 12:29N 40°57' E 024°28'0 0.0
2018-Aug-16 12:00N 40°57' E 024°28'2 4.5
2018-Aug-16 11:30N 40°55' E 024°29'5 9.8
2018-Aug-16 11:00N 40°50' E 024°27'1 2.2
2018-Aug-16 10:30N 40°49' E 024°27'0 0.0
2018-Aug-16 10:00N 40°49' E 024°27'0 0.3
2018-Aug-16 09:31N 40°49' E 024°27'0 0.2
2018-Aug-16 09:00N 40°49' E 024°27'0 0.0
2018-Aug-16 08:30N 40°49' E 024°27'0 0.0
2018-Aug-16 08:00N 40°49' E 024°27'0 0.0
2018-Aug-16 07:30N 40°49' E 024°27'0 0.0
2018-Aug-16 07:00N 40°49' E 024°27'0 0.0
2018-Aug-16 06:30N 40°49' E 024°27'0 0.0
2018-Aug-16 06:00N 40°49' E 024°27'0 0.1
2018-Aug-16 05:30N 40°48' E 024°27'4 7.2
2018-Aug-16 05:00N 40°52' E 024°28'5 9.5
2018-Aug-16 04:30N 40°57' E 024°29'0 0.9
2018-Aug-16 04:00N 40°57' E 024°28'0 0.0
2018-Aug-16 03:30N 40°57' E 024°28'0 0.0
2018-Aug-16 03:00N 40°57' E 024°28'0 0.0
2018-Aug-16 02:30N 40°57' E 024°28'0 0.0
2018-Aug-16 02:00N 40°57' E 024°28'0 0.0
2018-Aug-16 01:30N 40°57' E 024°28'0 0.0
2018-Aug-16 01:00N 40°57' E 024°28'0 0.0
2018-Aug-16 00:27N 40°57' E 024°28'0 0.0
2018-Aug-16 00:00N 40°57' E 024°28'0 0.0
2018-Aug-15 23:30N 40°57' E 024°28'0 0.0
2018-Aug-15 22:57N 40°57' E 024°28'0 0.0
2018-Aug-15 22:27N 40°57' E 024°28'0 0.0
2018-Aug-15 22:00N 40°57' E 024°28'0 0.0
2018-Aug-15 21:30N 40°57' E 024°28'0 0.0
2018-Aug-15 21:00N 40°57' E 024°28'0 0.0
2018-Aug-15 20:30N 40°57' E 024°28'0 0.0
2018-Aug-15 20:00N 40°57' E 024°28'0 0.0
2018-Aug-15 19:30N 40°57' E 024°28'0 0.0
2018-Aug-15 19:00N 40°57' E 024°28'0 0.0
2018-Aug-15 18:30N 40°57' E 024°28'0 0.0
2018-Aug-15 18:00N 40°57' E 024°28'0 0.0
2018-Aug-15 17:30N 40°57' E 024°28'0 0.0
2018-Aug-15 16:57N 40°57' E 024°28'0 0.0
2018-Aug-15 16:30N 40°57' E 024°28'0 0.0
2018-Aug-15 16:00N 40°57' E 024°28'0 0.0
2018-Aug-15 15:30N 40°57' E 024°28'0 0.0
2018-Aug-15 15:00N 40°57' E 024°28'0 0.0
2018-Aug-15 14:30N 40°57' E 024°28'0 0.0
2018-Aug-15 14:00N 40°57' E 024°28'0 0.0
2018-Aug-15 13:30N 40°57' E 024°28'0 0.0
2018-Aug-15 13:00N 40°57' E 024°28'0 0.0
2018-Aug-15 12:27N 40°57' E 024°28'0 0.0
2018-Aug-15 12:00N 40°57' E 024°28'0 0.0
2018-Aug-15 11:30N 40°57' E 024°28'0 0.0
2018-Aug-15 11:00N 40°57' E 024°28'0 0.0
2018-Aug-15 10:30N 40°57' E 024°28'2 3.3
2018-Aug-15 10:00N 40°55' E 024°29'4 7.5
2018-Aug-15 09:30N 40°51' E 024°28'3 6.0
2018-Aug-15 09:00N 40°49' E 024°27'0 0.0
2018-Aug-15 08:30N 40°49' E 024°27'0 0.0
2018-Aug-15 08:00N 40°49' E 024°27'0 0.0
2018-Aug-15 07:30N 40°49' E 024°27'0 0.0
2018-Aug-15 07:00N 40°49' E 024°27'0 0.0
2018-Aug-15 06:30N 40°49' E 024°27'0 0.0
2018-Aug-15 06:00N 40°49' E 024°27'0 0.0
2018-Aug-15 05:30N 40°49' E 024°27'0 0.0
2018-Aug-15 05:00N 40°49' E 024°27'0 0.9
2018-Aug-15 04:30N 40°49' E 024°27'0 0.2
2018-Aug-15 04:00N 40°49' E 024°27'0 0.0
2018-Aug-15 03:30N 40°49' E 024°27'0 0.0
2018-Aug-15 03:00N 40°49' E 024°27'0 0.0
2018-Aug-15 02:21N 40°49' E 024°27'0 0.0
2018-Aug-15 02:00N 40°49' E 024°27'0 0.0
2018-Aug-15 01:30N 40°49' E 024°27'0 0.0
2018-Aug-15 00:57N 40°49' E 024°27'0 0.0
2018-Aug-15 00:30N 40°49' E 024°27'0 0.0
2018-Aug-15 00:00N 40°49' E 024°27'0 0.0
2018-Aug-14 23:27N 40°49' E 024°27'0 0.0
2018-Aug-14 23:00N 40°49' E 024°27'0 0.1
2018-Aug-14 22:27N 40°49' E 024°27'0 0.1
2018-Aug-14 22:00N 40°49' E 024°27'0 0.0
2018-Aug-14 21:30N 40°49' E 024°27'0 0.0
2018-Aug-14 21:00N 40°49' E 024°27'0 0.0
2018-Aug-14 20:30N 40°49' E 024°27'0 0.0
2018-Aug-14 20:00N 40°49' E 024°27'0 0.0
2018-Aug-14 19:30N 40°49' E 024°27'0 0.0
2018-Aug-14 19:00N 40°49' E 024°27'0 0.0
2018-Aug-14 18:30N 40°49' E 024°27'0 0.0
2018-Aug-14 17:57N 40°49' E 024°27'0 0.0
2018-Aug-14 17:27N 40°49' E 024°27'0 0.0
2018-Aug-14 17:00N 40°49' E 024°27'0 0.0
2018-Aug-14 16:30N 40°49' E 024°27'0 0.0
2018-Aug-14 15:57N 40°49' E 024°27'0 0.0
2018-Aug-14 15:30N 40°49' E 024°27'0 0.0
2018-Aug-14 15:00N 40°49' E 024°27'0 0.0
2018-Aug-14 14:30N 40°49' E 024°27'0 0.0
2018-Aug-14 13:57N 40°49' E 024°27'0 0.0
2018-Aug-14 13:30N 40°49' E 024°27'0 0.0
2018-Aug-14 13:00N 40°49' E 024°27'0 0.2
2018-Aug-14 12:30N 40°49' E 024°27'5 9.4
2018-Aug-14 12:00N 40°54' E 024°28'3 6.3
2018-Aug-14 11:30N 40°57' E 024°28'0 0.0
2018-Aug-14 11:00N 40°57' E 024°28'0 0.0
2018-Aug-14 10:30N 40°57' E 024°28'0 0.0
2018-Aug-14 10:00N 40°57' E 024°28'0 0.0
2018-Aug-14 09:30N 40°57' E 024°28'0 0.0
2018-Aug-14 09:00N 40°57' E 024°28'0 0.0
2018-Aug-14 08:30N 40°57' E 024°28'0 0.0
2018-Aug-14 08:00N 40°57' E 024°28'0 0.0
2018-Aug-14 07:30N 40°57' E 024°28'0 0.0
2018-Aug-14 07:00N 40°57' E 024°28'0 0.0
2018-Aug-14 06:30N 40°57' E 024°28'0 0.0
2018-Aug-14 06:01N 40°57' E 024°28'0 0.0
2018-Aug-14 05:30N 40°57' E 024°28'0 0.0
2018-Aug-14 05:01N 40°57' E 024°28'0 0.0
2018-Aug-14 04:31N 40°57' E 024°28'3 6.5
2018-Aug-14 04:01N 40°54' E 024°28'5 9.8
2018-Aug-14 03:30N 40°49' E 024°27'0 0.3
2018-Aug-14 03:00N 40°49' E 024°27'0 0.0
2018-Aug-14 02:30N 40°49' E 024°27'0 0.0
2018-Aug-14 02:00N 40°49' E 024°27'0 0.0
2018-Aug-14 01:30N 40°49' E 024°27'0 0.0
2018-Aug-14 01:00N 40°49' E 024°27'0 0.0
2018-Aug-14 00:30N 40°49' E 024°27'0 0.6
2018-Aug-14 00:01N 40°49' E 024°27'0 0.0
2018-Aug-13 23:31N 40°49' E 024°27'0 0.0
2018-Aug-13 23:01N 40°49' E 024°27'0 0.0
2018-Aug-13 22:30N 40°49' E 024°27'0 0.0
2018-Aug-13 22:01N 40°49' E 024°27'0 0.0
2018-Aug-13 21:31N 40°49' E 024°27'0 0.0
2018-Aug-13 21:01N 40°49' E 024°27'0 0.0
2018-Aug-13 20:31N 40°49' E 024°27'0 0.0
2018-Aug-13 20:00N 40°49' E 024°27'0 0.0
2018-Aug-13 19:31N 40°49' E 024°27'0 0.1
2018-Aug-13 19:00N 40°49' E 024°27'0 0.0
2018-Aug-13 18:31N 40°49' E 024°27'0 0.0
2018-Aug-13 18:01N 40°49' E 024°27'0 0.0
2018-Aug-13 17:31N 40°49' E 024°27'0 0.0
2018-Aug-13 17:00N 40°49' E 024°27'0 0.0
2018-Aug-13 16:30N 40°49' E 024°27'0 0.0
2018-Aug-13 16:00N 40°49' E 024°27'1 2.2
2018-Aug-13 15:30N 40°50' E 024°27'5 9.5
2018-Aug-13 15:00N 40°54' E 024°29'2 4.5
2018-Aug-13 14:28N 40°57' E 024°28'0 0.0
2018-Aug-13 13:58N 40°57' E 024°28'0 0.0
2018-Aug-13 13:28N 40°57' E 024°28'0 0.0
2018-Aug-13 12:58N 40°57' E 024°28'0 0.0
2018-Aug-13 12:28N 40°57' E 024°28'0 0.0
2018-Aug-13 11:58N 40°57' E 024°28'0 0.0
2018-Aug-13 11:28N 40°57' E 024°28'0 0.0
2018-Aug-13 10:58N 40°57' E 024°28'0 0.0
2018-Aug-13 10:28N 40°57' E 024°28'0 0.0
2018-Aug-13 09:58N 40°57' E 024°28'0 0.0
2018-Aug-13 09:28N 40°57' E 024°28'0 0.0
2018-Aug-13 08:55N 40°57' E 024°28'0 0.0
2018-Aug-13 08:25N 40°57' E 024°28'0 0.0
2018-Aug-13 07:58N 40°57' E 024°28'0 0.0
2018-Aug-13 07:28N 40°57' E 024°28'0 0.1
2018-Aug-13 07:00N 40°57' E 024°28'3 6.4
2018-Aug-13 06:31N 40°54' E 024°28'510.1
2018-Aug-13 06:00N 40°49' E 024°27'0 0.2
2018-Aug-13 05:30N 40°49' E 024°27'0 0.0
2018-Aug-13 05:00N 40°49' E 024°27'0 0.0
2018-Aug-13 04:30N 40°49' E 024°27'0 0.0
2018-Aug-13 04:00N 40°49' E 024°27'0 0.2
2018-Aug-13 03:30N 40°49' E 024°27'0 0.1
2018-Aug-13 03:00N 40°49' E 024°27'0 0.0
2018-Aug-13 02:30N 40°49' E 024°27'0 0.0
2018-Aug-13 02:00N 40°49' E 024°27'0 0.0
2018-Aug-13 01:30N 40°49' E 024°27'0 0.0
2018-Aug-13 01:00N 40°49' E 024°27'0 0.0
2018-Aug-13 00:31N 40°49' E 024°27'0 0.0
2018-Aug-13 00:01N 40°49' E 024°27'0 0.0
2018-Aug-12 23:30N 40°49' E 024°27'1 1.1
2018-Aug-12 23:00N 40°49' E 024°27'5 9.4
2018-Aug-12 22:31N 40°54' E 024°28'3 5.4
2018-Aug-12 21:58N 40°57' E 024°28'0 0.0
2018-Aug-12 21:31N 40°57' E 024°28'0 0.0
2018-Aug-12 20:58N 40°57' E 024°28'0 0.0
2018-Aug-12 20:31N 40°57' E 024°28'0 0.0
2018-Aug-12 20:00N 40°57' E 024°28'0 0.0
2018-Aug-12 19:30N 40°57' E 024°28'0 0.0
2018-Aug-12 19:00N 40°57' E 024°28'0 0.0
2018-Aug-12 18:30N 40°57' E 024°28'0 0.0
2018-Aug-12 18:00N 40°57' E 024°28'0 0.0
2018-Aug-12 17:30N 40°57' E 024°28'0 0.0
2018-Aug-12 17:00N 40°57' E 024°28'0 0.0
2018-Aug-12 16:27N 40°57' E 024°28'0 0.0
2018-Aug-12 16:00N 40°57' E 024°28'0 0.0
2018-Aug-12 15:30N 40°57' E 024°28'0 0.0
2018-Aug-12 15:00N 40°57' E 024°28'0 0.0
2018-Aug-12 14:30N 40°57' E 024°28'0 0.0
2018-Aug-12 14:00N 40°57' E 024°28'0 0.0
2018-Aug-12 13:30N 40°57' E 024°28'0 0.0
2018-Aug-12 13:00N 40°57' E 024°28'0 0.0
2018-Aug-12 12:30N 40°57' E 024°28'0 0.0
2018-Aug-12 12:00N 40°57' E 024°28'0 0.0
2018-Aug-12 11:30N 40°57' E 024°28'0 0.0
2018-Aug-12 11:00N 40°57' E 024°28'0 0.0
2018-Aug-12 10:30N 40°57' E 024°28'0 0.0
2018-Aug-12 10:00N 40°57' E 024°28'0 0.0
2018-Aug-12 09:30N 40°57' E 024°28'0 0.0
2018-Aug-12 09:00N 40°57' E 024°28'0 0.0
2018-Aug-12 08:30N 40°57' E 024°28'0 0.0
2018-Aug-12 08:00N 40°57' E 024°28'0 0.0
2018-Aug-12 07:30N 40°57' E 024°28'0 0.0
2018-Aug-12 07:00N 40°57' E 024°28'0 0.0
2018-Aug-12 06:30N 40°57' E 024°28'0 0.0
2018-Aug-12 05:57N 40°57' E 024°28'0 0.1
2018-Aug-12 05:30N 40°57' E 024°28'4 8.7
2018-Aug-12 05:00N 40°52' E 024°28'4 7.7
2018-Aug-12 04:30N 40°49' E 024°27'0 0.6
2018-Aug-12 04:00N 40°49' E 024°27'0 0.1
2018-Aug-12 03:30N 40°49' E 024°27'0 0.0
2018-Aug-12 03:00N 40°49' E 024°27'0 0.0
2018-Aug-12 02:30N 40°49' E 024°27'0 0.0
2018-Aug-12 01:57N 40°49' E 024°27'0 0.0
2018-Aug-12 01:30N 40°49' E 024°27'0 0.2
2018-Aug-12 01:00N 40°49' E 024°27'0 0.6
2018-Aug-12 00:30N 40°49' E 024°27'0 0.0
2018-Aug-12 00:00N 40°49' E 024°27'0 0.0
2018-Aug-11 23:30N 40°49' E 024°27'0 0.0
2018-Aug-11 23:00N 40°49' E 024°27'0 0.2
2018-Aug-11 22:30N 40°49' E 024°27'0 0.0
2018-Aug-11 22:00N 40°49' E 024°27'0 0.0
2018-Aug-11 21:30N 40°49' E 024°27'0 0.0
2018-Aug-11 21:00N 40°49' E 024°27'0 0.0
2018-Aug-11 20:30N 40°49' E 024°27'0 0.0
2018-Aug-11 20:00N 40°49' E 024°27'0 0.0
2018-Aug-11 19:30N 40°49' E 024°27'0 0.0
2018-Aug-11 19:00N 40°49' E 024°27'0 0.0
2018-Aug-11 18:30N 40°49' E 024°27'0 0.0
2018-Aug-11 18:00N 40°49' E 024°27'0 0.0
2018-Aug-11 17:30N 40°49' E 024°27'0 0.0
2018-Aug-11 17:00N 40°49' E 024°27'0 0.0
2018-Aug-11 16:30N 40°49' E 024°27'0 0.0
2018-Aug-11 16:00N 40°49' E 024°27'0 0.0
2018-Aug-11 15:30N 40°49' E 024°27'2 3.3
2018-Aug-11 15:00N 40°50' E 024°27'510.0
2018-Aug-11 14:30N 40°55' E 024°28'2 3.3
2018-Aug-11 14:00N 40°57' E 024°28'0 0.0
2018-Aug-11 13:30N 40°57' E 024°28'0 0.0
2018-Aug-11 13:00N 40°57' E 024°28'0 0.0
2018-Aug-11 12:30N 40°57' E 024°28'0 0.0
2018-Aug-11 12:00N 40°57' E 024°28'0 0.0
2018-Aug-11 11:30N 40°57' E 024°28'0 0.0
2018-Aug-11 11:00N 40°57' E 024°28'0 0.0
2018-Aug-11 10:30N 40°57' E 024°28'0 0.0
2018-Aug-11 10:00N 40°57' E 024°28'2 3.6
2018-Aug-11 09:31N 40°55' E 024°28'510.4
2018-Aug-11 09:01N 40°50' E 024°27'1 2.7
2018-Aug-11 08:31N 40°49' E 024°27'0 0.0
2018-Aug-11 08:00N 40°49' E 024°27'0 0.0
2018-Aug-11 07:31N 40°49' E 024°27'0 0.0
2018-Aug-11 07:01N 40°49' E 024°27'0 0.0
2018-Aug-11 06:31N 40°49' E 024°27'0 0.7
2018-Aug-11 06:00N 40°49' E 024°27'0 0.0
2018-Aug-11 05:26N 40°49' E 024°27'0 0.0
2018-Aug-11 04:56N 40°49' E 024°27'0 0.0
2018-Aug-11 04:29N 40°49' E 024°27'0 0.0
2018-Aug-11 03:59N 40°49' E 024°27'0 0.0
2018-Aug-11 03:29N 40°49' E 024°27'0 0.0
2018-Aug-11 02:56N 40°49' E 024°27'0 0.0
2018-Aug-11 02:29N 40°49' E 024°27'0 0.1
2018-Aug-11 01:56N 40°49' E 024°27'0 0.1
2018-Aug-11 01:29N 40°49' E 024°27'0 0.0
2018-Aug-11 00:59N 40°49' E 024°27'0 0.1
2018-Aug-11 00:29N 40°49' E 024°27'0 0.2
2018-Aug-11 00:00N 40°49' E 024°27'0 0.8
2018-Aug-10 23:30N 40°49' E 024°27'0 0.0
2018-Aug-10 23:00N 40°49' E 024°27'0 0.0
2018-Aug-10 22:30N 40°49' E 024°27'0 0.0
2018-Aug-10 22:00N 40°49' E 024°27'0 0.1
2018-Aug-10 21:30N 40°49' E 024°27'0 0.3
2018-Aug-10 21:00N 40°49' E 024°27'0 0.1
2018-Aug-10 20:30N 40°49' E 024°27'0 0.1
2018-Aug-10 20:00N 40°49' E 024°27'0 0.0
2018-Aug-10 19:30N 40°49' E 024°27'0 0.0
2018-Aug-10 19:00N 40°49' E 024°27'0 0.0
2018-Aug-10 18:30N 40°49' E 024°27'0 0.0
2018-Aug-10 18:00N 40°49' E 024°27'0 0.0
2018-Aug-10 17:30N 40°49' E 024°27'0 0.0
2018-Aug-10 17:00N 40°49' E 024°27'0 0.0
2018-Aug-10 16:30N 40°49' E 024°27'0 0.0
2018-Aug-10 16:00N 40°49' E 024°27'0 0.0
2018-Aug-10 15:30N 40°49' E 024°27'0 0.2
2018-Aug-10 15:00N 40°49' E 024°27'5 9.0
2018-Aug-10 14:29N 40°53' E 024°28'3 7.3
2018-Aug-10 14:00N 40°57' E 024°28'0 0.0
2018-Aug-10 13:30N 40°57' E 024°28'0 0.0
2018-Aug-10 13:00N 40°57' E 024°28'0 0.0
2018-Aug-10 12:30N 40°57' E 024°28'0 0.0
2018-Aug-10 12:00N 40°57' E 024°28'0 0.0
2018-Aug-10 11:30N 40°57' E 024°28'0 0.0
2018-Aug-10 11:00N 40°57' E 024°28'0 0.0
2018-Aug-10 10:30N 40°57' E 024°28'0 0.0
2018-Aug-10 09:57N 40°57' E 024°28'0 0.0
2018-Aug-10 09:30N 40°57' E 024°28'0 0.0
2018-Aug-10 09:00N 40°57' E 024°28'0 0.0
2018-Aug-10 08:30N 40°57' E 024°28'0 0.0
2018-Aug-10 08:00N 40°57' E 024°28'0 0.0
2018-Aug-10 07:30N 40°57' E 024°28'0 0.0
2018-Aug-10 07:00N 40°57' E 024°28'0 0.0
2018-Aug-10 06:30N 40°57' E 024°28'0 0.0
2018-Aug-10 06:00N 40°57' E 024°28'0 0.0
2018-Aug-10 05:30N 40°57' E 024°28'0 0.0
2018-Aug-10 05:00N 40°57' E 024°28'0 0.0
2018-Aug-10 04:30N 40°57' E 024°28'0 0.0
2018-Aug-10 04:00N 40°57' E 024°28'0 0.0
2018-Aug-10 03:30N 40°57' E 024°28'0 0.0
2018-Aug-10 03:00N 40°57' E 024°28'0 0.0
2018-Aug-10 02:30N 40°57' E 024°28'0 0.0
2018-Aug-10 02:00N 40°57' E 024°28'0 0.0
2018-Aug-10 01:29N 40°57' E 024°28'0 0.0
2018-Aug-10 00:59N 40°57' E 024°28'0 0.0
2018-Aug-10 00:29N 40°57' E 024°28'0 0.0
2018-Aug-09 23:59N 40°57' E 024°28'0 0.0
2018-Aug-09 23:29N 40°57' E 024°28'0 0.0
2018-Aug-09 22:59N 40°57' E 024°28'0 0.0
2018-Aug-09 22:29N 40°57' E 024°28'0 0.0
2018-Aug-09 21:59N 40°57' E 024°28'0 0.0
2018-Aug-09 21:29N 40°57' E 024°28'0 0.0
2018-Aug-09 20:59N 40°57' E 024°28'0 0.0
2018-Aug-09 20:29N 40°57' E 024°28'0 0.0
2018-Aug-09 19:59N 40°57' E 024°28'0 0.0
2018-Aug-09 19:29N 40°57' E 024°28'0 0.0
2018-Aug-09 18:59N 40°57' E 024°28'0 0.0
2018-Aug-09 18:29N 40°57' E 024°28'0 0.0
2018-Aug-09 17:59N 40°57' E 024°28'0 0.0
2018-Aug-09 17:29N 40°57' E 024°28'0 0.0
2018-Aug-09 16:59N 40°57' E 024°28'0 0.0
2018-Aug-09 16:29N 40°57' E 024°28'0 0.0
2018-Aug-09 15:59N 40°57' E 024°28'0 0.0
2018-Aug-09 15:29N 40°57' E 024°28'0 0.0
2018-Aug-09 14:59N 40°57' E 024°28'0 0.0
2018-Aug-09 14:29N 40°57' E 024°28'0 0.0
2018-Aug-09 13:59N 40°57' E 024°28'0 0.1
2018-Aug-09 13:29N 40°57' E 024°28'0 0.0
2018-Aug-09 12:59N 40°57' E 024°28'0 0.0
2018-Aug-09 12:29N 40°57' E 024°28'0 0.0
2018-Aug-09 11:59N 40°57' E 024°28'0 0.0
2018-Aug-09 11:29N 40°57' E 024°28'0 0.0
2018-Aug-09 10:59N 40°57' E 024°28'0 0.0
2018-Aug-09 10:29N 40°57' E 024°28'0 0.0
2018-Aug-09 09:59N 40°57' E 024°28'0 0.0
2018-Aug-09 09:29N 40°57' E 024°28'0 0.0
2018-Aug-09 08:59N 40°57' E 024°28'0 0.0
2018-Aug-09 08:29N 40°57' E 024°28'0 0.0
2018-Aug-09 07:59N 40°57' E 024°28'0 0.0
2018-Aug-09 07:29N 40°57' E 024°28'0 0.0
2018-Aug-09 06:59N 40°57' E 024°28'0 0.0
2018-Aug-09 06:29N 40°57' E 024°28'0 0.0
2018-Aug-09 05:59N 40°57' E 024°28'0 0.0
2018-Aug-09 05:29N 40°57' E 024°28'0 0.0
2018-Aug-09 04:59N 40°57' E 024°28'0 0.0
2018-Aug-09 04:31N 40°57' E 024°28'1 1.2
2018-Aug-09 04:00N 40°56' E 024°29'510.3
2018-Aug-09 03:31N 40°51' E 024°28'2 4.6
2018-Aug-09 02:58N 40°49' E 024°27'0 0.0
2018-Aug-09 02:22N 40°49' E 024°27'0 0.0
2018-Aug-09 01:58N 40°49' E 024°27'0 0.0
2018-Aug-09 01:28N 40°49' E 024°27'0 0.0
2018-Aug-09 00:55N 40°49' E 024°27'0 0.0
2018-Aug-09 00:28N 40°49' E 024°27'0 0.0
2018-Aug-08 23:58N 40°49' E 024°27'0 0.0
2018-Aug-08 23:22N 40°49' E 024°27'0 0.0
2018-Aug-08 22:58N 40°49' E 024°27'0 0.0
2018-Aug-08 22:25N 40°49' E 024°27'0 0.0
2018-Aug-08 21:55N 40°49' E 024°27'0 0.0
2018-Aug-08 21:22N 40°49' E 024°27'0 0.0
2018-Aug-08 20:55N 40°49' E 024°27'0 0.0
2018-Aug-08 20:28N 40°49' E 024°27'0 0.0
2018-Aug-08 19:58N 40°49' E 024°27'0 0.0
2018-Aug-08 19:28N 40°49' E 024°27'0 0.1
2018-Aug-08 18:58N 40°49' E 024°27'0 0.0
2018-Aug-08 18:19N 40°49' E 024°27'0 0.0
2018-Aug-08 17:55N 40°49' E 024°27'0 0.0
2018-Aug-08 17:28N 40°49' E 024°27'0 0.8
2018-Aug-08 17:00N 40°49' E 024°27'0 0.0
2018-Aug-08 16:30N 40°49' E 024°27'0 0.0
2018-Aug-08 16:00N 40°49' E 024°27'0 0.0
2018-Aug-08 15:30N 40°49' E 024°27'0 0.0
2018-Aug-08 15:00N 40°49' E 024°27'0 0.0
2018-Aug-08 14:30N 40°49' E 024°27'0 0.0
2018-Aug-08 14:00N 40°49' E 024°27'0 0.0
2018-Aug-08 13:30N 40°49' E 024°27'0 0.0
2018-Aug-08 13:00N 40°49' E 024°27'0 0.0
2018-Aug-08 12:30N 40°49' E 024°27'0 0.0
2018-Aug-08 12:00N 40°49' E 024°27'0 0.2
2018-Aug-08 11:30N 40°49' E 024°27'0 0.0
2018-Aug-08 11:00N 40°49' E 024°27'0 0.0
2018-Aug-08 10:30N 40°49' E 024°27'0 0.0
2018-Aug-08 10:00N 40°49' E 024°27'0 0.0
2018-Aug-08 09:29N 40°49' E 024°27'0 0.0
2018-Aug-08 09:00N 40°49' E 024°27'0 0.0
2018-Aug-08 08:30N 40°49' E 024°27'0 0.0
2018-Aug-08 08:00N 40°49' E 024°27'0 0.5
2018-Aug-08 07:30N 40°49' E 024°27'0 0.0
2018-Aug-08 07:00N 40°49' E 024°27'0 0.0
2018-Aug-08 06:30N 40°49' E 024°27'0 0.0
2018-Aug-08 06:00N 40°49' E 024°27'0 0.0
2018-Aug-08 05:30N 40°49' E 024°27'0 0.0
2018-Aug-08 05:00N 40°49' E 024°27'0 0.0
2018-Aug-08 04:30N 40°49' E 024°27'0 0.0
2018-Aug-08 04:00N 40°49' E 024°27'0 0.0
2018-Aug-08 03:30N 40°49' E 024°27'0 0.0
2018-Aug-08 03:00N 40°49' E 024°27'0 0.0
2018-Aug-08 02:30N 40°49' E 024°27'0 0.0
2018-Aug-08 02:00N 40°49' E 024°27'0 0.0
2018-Aug-08 01:30N 40°49' E 024°27'0 0.0
2018-Aug-08 01:00N 40°49' E 024°27'0 0.0
2018-Aug-08 00:30N 40°49' E 024°27'0 0.0
2018-Aug-07 23:54N 40°49' E 024°27'0 0.0
2018-Aug-07 23:27N 40°49' E 024°27'0 0.0
2018-Aug-07 22:57N 40°49' E 024°27'0 0.0
2018-Aug-07 22:30N 40°49' E 024°27'0 0.0
2018-Aug-07 22:00N 40°49' E 024°27'0 0.0
2018-Aug-07 21:30N 40°49' E 024°27'0 0.0
2018-Aug-07 21:00N 40°49' E 024°27'0 0.0
2018-Aug-07 20:30N 40°49' E 024°27'0 0.0
2018-Aug-07 20:00N 40°49' E 024°27'0 0.0
2018-Aug-07 19:30N 40°49' E 024°27'0 0.0
2018-Aug-07 19:00N 40°49' E 024°27'0 0.0
2018-Aug-07 18:30N 40°49' E 024°27'0 0.0
2018-Aug-07 18:00N 40°49' E 024°27'0 0.0
2018-Aug-07 17:30N 40°49' E 024°27'3 6.4
2018-Aug-07 17:00N 40°52' E 024°28'5 9.7
2018-Aug-07 16:30N 40°57' E 024°29'0 0.9
2018-Aug-07 16:00N 40°57' E 024°28'0 0.0
2018-Aug-07 15:30N 40°57' E 024°28'0 0.0
2018-Aug-07 14:57N 40°57' E 024°28'0 0.0
2018-Aug-07 14:30N 40°57' E 024°28'0 0.0
2018-Aug-07 14:00N 40°57' E 024°28'0 0.0
2018-Aug-07 13:30N 40°57' E 024°28'0 0.0
2018-Aug-07 13:00N 40°57' E 024°28'0 0.0
2018-Aug-07 12:30N 40°57' E 024°28'0 0.0
2018-Aug-07 12:00N 40°57' E 024°28'0 0.0
2018-Aug-07 11:27N 40°57' E 024°28'0 0.0
2018-Aug-07 11:00N 40°57' E 024°28'0 0.0
2018-Aug-07 10:30N 40°57' E 024°28'0 0.0
2018-Aug-07 10:00N 40°57' E 024°28'0 0.0
2018-Aug-07 09:31N 40°57' E 024°28'3 5.8
2018-Aug-07 09:01N 40°54' E 024°29'510.4
2018-Aug-07 08:30N 40°49' E 024°27'0 0.4
2018-Aug-07 08:01N 40°49' E 024°27'0 0.6
2018-Aug-07 07:31N 40°49' E 024°27'0 0.1
2018-Aug-07 06:59N 40°49' E 024°27'0 0.0
2018-Aug-07 06:29N 40°49' E 024°27'0 0.0
2018-Aug-07 05:59N 40°49' E 024°27'0 0.0
2018-Aug-07 05:29N 40°49' E 024°27'0 0.0
2018-Aug-07 04:59N 40°49' E 024°27'0 0.0
2018-Aug-07 04:29N 40°49' E 024°27'0 0.0
2018-Aug-07 03:59N 40°49' E 024°27'0 0.0
2018-Aug-07 03:29N 40°49' E 024°27'0 0.0
2018-Aug-07 02:53N 40°49' E 024°27'0 0.0
2018-Aug-07 02:29N 40°49' E 024°27'0 0.0
2018-Aug-07 01:59N 40°49' E 024°27'0 0.0
2018-Aug-07 01:29N 40°49' E 024°27'0 0.0
2018-Aug-07 00:59N 40°49' E 024°27'0 0.0
2018-Aug-07 00:23N 40°49' E 024°27'0 0.0
2018-Aug-06 23:59N 40°49' E 024°27'0 0.0
2018-Aug-06 23:29N 40°49' E 024°27'0 0.5
2018-Aug-06 23:00N 40°49' E 024°27'0 0.0
2018-Aug-06 22:30N 40°49' E 024°27'0 0.6
2018-Aug-06 22:00N 40°49' E 024°27'0 0.1
2018-Aug-06 21:28N 40°49' E 024°27'0 0.0
2018-Aug-06 20:58N 40°49' E 024°27'0 0.0
2018-Aug-06 20:28N 40°49' E 024°27'  

Dump ship's entire track history